Time;durP1;ratioP1;P1;durP2;ratioP2;P2;SDS_P1;SDS_P2;PMS_P1;PMS_P2;Temp;Humidity;BMP_temperature;BMP_pressure;BME280_temperature;BME280_humidity;BME280_pressure;Samples;Min_cycle;Max_cycle;Signal;HPM_P1;HPM_P2
2022/12/04 00:02:04;;;;;;;0.00;0.00;;;;;;;;;;4993546;28;20046;-89
2022/12/04 00:04:30;;;;;;;0.43;0.32;;;;;;;;;;4994018;28;20039;-89
2022/12/04 00:06:56;;;;;;;0.00;0.00;;;;;;;;;;4993310;28;20053;-88
2022/12/04 00:09:22;;;;;;;0.00;0.00;;;;;;;;;;4993651;28;20050;-89
2022/12/04 00:11:48;;;;;;;0.00;0.00;;;;;;;;;;4993675;28;20133;-89
2022/12/04 00:14:14;;;;;;;0.00;0.00;;;;;;;;;;4994120;28;20050;-89
2022/12/04 00:16:40;;;;;;;0.00;0.00;;;;;;;;;;4993389;28;20096;-91
2022/12/04 00:19:06;;;;;;;0.10;0.03;;;;;;;;;;4993355;28;20038;-88
2022/12/04 00:21:32;;;;;;;0.00;0.00;;;;;;;;;;4993499;28;20048;-91
2022/12/04 00:23:59;;;;;;;0.00;0.00;;;;;;;;;;4993508;28;20443;-89
2022/12/04 00:26:27;;;;;;;0.00;0.00;;;;;;;;;;4993535;28;20048;-90
2022/12/04 00:28:53;;;;;;;0.00;0.00;;;;;;;;;;4993884;28;20066;-88
2022/12/04 00:31:20;;;;;;;0.00;0.00;;;;;;;;;;4993411;28;20133;-88
2022/12/04 00:33:47;;;;;;;3.00;0.20;;;;;;;;;;4993230;28;20230;-88
2022/12/04 00:36:14;;;;;;;0.10;0.08;;;;;;;;;;4993125;28;20042;-90
2022/12/04 00:38:41;;;;;;;0.43;0.20;;;;;;;;;;4993000;28;20049;-89
2022/12/04 00:41:11;;;;;;;1.40;0.47;;;;;;;;;;4993513;28;20125;-90
2022/12/04 00:43:37;;;;;;;0.52;0.20;;;;;;;;;;4992872;28;20046;-89
2022/12/04 00:46:03;;;;;;;5.68;0.38;;;;;;;;;;4993308;28;20074;-88
2022/12/04 00:48:29;;;;;;;0.35;0.05;;;;;;;;;;4992747;28;20578;-89
2022/12/04 00:50:57;;;;;;;0.00;0.00;;;;;;;;;;4993243;28;20042;-89
2022/12/04 00:53:23;;;;;;;0.65;0.20;;;;;;;;;;4992671;28;20077;-88
2022/12/04 00:55:49;;;;;;;0.00;0.00;;;;;;;;;;4993297;28;20046;-89
2022/12/04 00:58:15;;;;;;;0.00;0.00;;;;;;;;;;4992692;28;20399;-89
2022/12/04 01:00:42;;;;;;;0.38;0.32;;;;;;;;;;4992850;28;20057;-88
2022/12/04 01:03:08;;;;;;;0.05;0.00;;;;;;;;;;4992720;28;20050;-88
2022/12/04 01:05:41;;;;;;;0.00;0.00;;;;;;;;;;4992715;28;20113;-89
2022/12/04 01:08:07;;;;;;;0.00;0.00;;;;;;;;;;4992577;28;20565;-90
2022/12/04 01:10:33;;;;;;;0.00;0.00;;;;;;;;;;4992973;28;20149;-89
2022/12/04 01:12:59;;;;;;;0.00;0.00;;;;;;;;;;4992550;28;20074;-90
2022/12/04 01:15:25;;;;;;;0.00;0.00;;;;;;;;;;4993060;28;20086;-89
2022/12/04 01:17:51;;;;;;;0.65;0.30;;;;;;;;;;4992331;28;20043;-89
2022/12/04 01:20:17;;;;;;;0.52;0.10;;;;;;;;;;4992699;28;20417;-90
2022/12/04 01:22:43;;;;;;;0.05;0.05;;;;;;;;;;4992671;28;20040;-89
2022/12/04 01:25:09;;;;;;;0.00;0.00;;;;;;;;;;4992760;28;20046;-88
2022/12/04 01:27:35;;;;;;;0.98;0.35;;;;;;;;;;4992233;28;20038;-88
2022/12/04 01:30:01;;;;;;;0.28;0.28;;;;;;;;;;4992742;28;20050;-89
2022/12/04 01:32:27;;;;;;;0.00;0.00;;;;;;;;;;4992371;28;20134;-88
2022/12/04 01:34:53;;;;;;;1.85;0.65;;;;;;;;;;4992567;28;20046;-89
2022/12/04 01:37:19;;;;;;;0.00;0.00;;;;;;;;;;4992615;28;20053;-90
2022/12/04 01:39:45;;;;;;;0.00;0.00;;;;;;;;;;4992359;28;20042;-90
2022/12/04 01:42:15;;;;;;;0.00;0.00;;;;;;;;;;4992924;28;20149;-91
2022/12/04 01:45:04;;;;;;;0.00;0.00;;;;;;;;;;4992609;28;20410;-91
2022/12/04 01:47:30;;;;;;;0.00;0.00;;;;;;;;;;4992281;28;20045;-88
2022/12/04 01:49:56;;;;;;;0.22;0.22;;;;;;;;;;4992392;28;20034;-89
2022/12/04 01:52:23;;;;;;;0.00;0.00;;;;;;;;;;4992471;28;20042;-89
2022/12/04 01:54:50;;;;;;;0.00;0.00;;;;;;;;;;4992714;28;20046;-90
2022/12/04 01:57:20;;;;;;;0.00;0.00;;;;;;;;;;4993074;28;20046;-89
2022/12/04 01:59:51;;;;;;;0.00;0.00;;;;;;;;;;4992249;28;20054;-90
2022/12/04 02:02:20;;;;;;;0.85;0.45;;;;;;;;;;4992549;28;20049;-90
2022/12/04 02:04:46;;;;;;;1.35;0.52;;;;;;;;;;4992516;28;20177;-89
2022/12/04 02:07:12;;;;;;;0.00;0.00;;;;;;;;;;4992692;28;20485;-89
2022/12/04 02:09:40;;;;;;;0.00;0.00;;;;;;;;;;4992468;28;20128;-89
2022/12/04 02:12:32;;;;;;;0.10;0.10;;;;;;;;;;4992094;28;20504;-89
2022/12/04 02:14:58;;;;;;;0.00;0.00;;;;;;;;;;4992231;28;20149;-90
2022/12/04 02:17:24;;;;;;;0.00;0.00;;;;;;;;;;4992021;28;20046;-90
2022/12/04 02:19:57;;;;;;;0.00;0.00;;;;;;;;;;4992107;28;20097;-89
2022/12/04 02:22:42;;;;;;;0.20;0.20;;;;;;;;;;4992083;28;20073;-91
2022/12/04 02:25:14;;;;;;;0.00;0.00;;;;;;;;;;4992304;28;20035;-90
2022/12/04 02:27:40;;;;;;;0.30;0.30;;;;;;;;;;4992232;28;20057;-91
2022/12/04 02:30:10;;;;;;;0.00;0.00;;;;;;;;;;4995037;28;20042;-90
2022/12/04 02:32:46;;;;;;;0.00;0.00;;;;;;;;;;4995740;28;20042;-89
2022/12/04 02:35:19;;;;;;;0.00;0.00;;;;;;;;;;4995495;28;20046;-92
2022/12/04 02:37:56;;;;;;;0.00;0.00;;;;;;;;;;4995734;28;20046;-89
2022/12/04 02:40:24;;;;;;;1.75;0.43;;;;;;;;;;4995625;28;20034;-88
2022/12/04 02:43:03;;;;;;;0.00;0.00;;;;;;;;;;4995255;28;20046;-88
2022/12/04 02:45:36;;;;;;;0.00;0.00;;;;;;;;;;4995510;28;20388;-89
2022/12/04 02:48:04;;;;;;;0.00;0.00;;;;;;;;;;4995498;28;20157;-88
2022/12/04 02:50:33;;;;;;;0.00;0.00;;;;;;;;;;4995395;28;20049;-90
2022/12/04 02:53:03;;;;;;;0.32;0.10;;;;;;;;;;4995326;28;20038;-90
2022/12/04 02:55:33;;;;;;;0.00;0.00;;;;;;;;;;4979321;28;20038;-89
2022/12/04 02:58:02;;;;;;;0.10;0.00;;;;;;;;;;4995255;28;20046;-90
2022/12/04 03:00:29;;;;;;;0.00;0.00;;;;;;;;;;4995286;28;20051;-90
2022/12/04 03:03:04;;;;;;;0.00;0.00;;;;;;;;;;4995127;28;20038;-90
2022/12/04 03:05:38;;;;;;;0.35;0.22;;;;;;;;;;4995479;28;20047;-90
2022/12/04 03:08:07;;;;;;;0.10;0.10;;;;;;;;;;4995167;28;20447;-91
2022/12/04 03:10:36;;;;;;;0.88;0.88;;;;;;;;;;4995104;28;20061;-91
2022/12/04 03:13:12;;;;;;;0.00;0.00;;;;;;;;;;4995117;28;20046;-90
2022/12/04 03:15:41;;;;;;;0.00;0.00;;;;;;;;;;4994937;28;20042;-91
2022/12/04 03:18:16;;;;;;;0.00;0.00;;;;;;;;;;4994806;28;20053;-89
2022/12/04 03:20:43;;;;;;;1.30;0.52;;;;;;;;;;4994927;28;20069;-91
2022/12/04 03:23:12;;;;;;;0.00;0.00;;;;;;;;;;4994505;28;20035;-89
2022/12/04 03:25:43;;;;;;;0.00;0.00;;;;;;;;;;4994717;28;20035;-89
2022/12/04 03:28:18;;;;;;;0.00;0.00;;;;;;;;;;4994770;28;20136;-89
2022/12/04 03:30:49;;;;;;;0.00;0.00;;;;;;;;;;4994706;28;20101;-89
2022/12/04 03:33:16;;;;;;;0.00;0.00;;;;;;;;;;4994611;28;20045;-90
2022/12/04 03:36:01;;;;;;;5.50;0.30;;;;;;;;;;4994286;28;20042;-91
2022/12/04 03:38:35;;;;;;;0.55;0.55;;;;;;;;;;4994230;28;20038;-89
2022/12/04 03:41:06;;;;;;;0.00;0.00;;;;;;;;;;4993427;28;20145;-88
2022/12/04 03:43:39;;;;;;;0.00;0.00;;;;;;;;;;4994346;28;20504;-88
2022/12/04 03:46:09;;;;;;;0.00;0.00;;;;;;;;;;4994224;28;20042;-88
2022/12/04 03:48:42;;;;;;;0.20;0.10;;;;;;;;;;4994270;28;20050;-89
2022/12/04 03:51:27;;;;;;;0.00;0.00;;;;;;;;;;4994135;28;20399;-90
2022/12/04 03:53:53;;;;;;;0.00;0.00;;;;;;;;;;4994118;28;20042;-88
2022/12/04 03:56:21;;;;;;;0.40;0.22;;;;;;;;;;4993936;28;20061;-89
2022/12/04 03:58:49;;;;;;;2.55;0.28;;;;;;;;;;4993360;28;20157;-89
2022/12/04 04:01:17;;;;;;;0.00;0.00;;;;;;;;;;4994233;28;20054;-89
2022/12/04 04:03:46;;;;;;;0.13;0.13;;;;;;;;;;4993770;28;20038;-88
2022/12/04 04:06:15;;;;;;;0.20;0.20;;;;;;;;;;4994005;28;20042;-89
2022/12/04 04:08:44;;;;;;;0.00;0.00;;;;;;;;;;4993632;28;20050;-88
2022/12/04 04:11:10;;;;;;;0.00;0.00;;;;;;;;;;4993490;28;20038;-89
2022/12/04 04:24:48;;;;;;;0.10;0.10;;;;;;;;;;4993831;28;20543;-89
2022/12/04 04:27:14;;;;;;;0.00;0.00;;;;;;;;;;4993517;28;20050;-90
2022/12/04 04:29:41;;;;;;;0.00;0.00;;;;;;;;;;4993414;28;20047;-91
2022/12/04 04:32:26;;;;;;;0.05;0.03;;;;;;;;;;4993950;28;20554;-90
2022/12/04 04:35:07;;;;;;;0.00;0.00;;;;;;;;;;4993483;28;20042;-90
2022/12/04 04:37:42;;;;;;;0.00;0.00;;;;;;;;;;4993440;28;20137;-89
2022/12/04 04:40:26;;;;;;;0.00;0.00;;;;;;;;;;4993128;28;20070;-89
2022/12/04 04:43:17;;;;;;;3.63;0.32;;;;;;;;;;4993248;28;20404;-89
2022/12/04 04:45:47;;;;;;;0.00;0.00;;;;;;;;;;4993104;28;20069;-90
2022/12/04 04:48:31;;;;;;;0.00;0.00;;;;;;;;;;4993317;28;20046;-90
2022/12/04 04:50:58;;;;;;;0.00;0.00;;;;;;;;;;4992943;28;20042;-89
2022/12/04 04:53:34;;;;;;;0.00;0.00;;;;;;;;;;4993060;28;20081;-89
2022/12/04 04:56:00;;;;;;;0.00;0.00;;;;;;;;;;4993292;28;20042;-89
2022/12/04 04:58:26;;;;;;;0.00;0.00;;;;;;;;;;4992755;28;20121;-88
2022/12/04 05:00:55;;;;;;;0.00;0.00;;;;;;;;;;4992711;28;20116;-88
2022/12/04 05:03:21;;;;;;;0.57;0.43;;;;;;;;;;4992904;28;20050;-89
2022/12/04 05:05:47;;;;;;;0.00;0.00;;;;;;;;;;4992822;28;20042;-89
2022/12/04 05:08:13;;;;;;;0.00;0.00;;;;;;;;;;4992836;28;20042;-89
2022/12/04 05:10:39;;;;;;;0.00;0.00;;;;;;;;;;4992753;28;20046;-89
2022/12/04 05:13:05;;;;;;;0.03;0.00;;;;;;;;;;4992677;28;20042;-88
2022/12/04 05:15:31;;;;;;;0.00;0.00;;;;;;;;;;4992596;28;20042;-89
2022/12/04 05:17:57;;;;;;;1.08;0.28;;;;;;;;;;4992457;28;20089;-89
2022/12/04 05:20:23;;;;;;;0.00;0.00;;;;;;;;;;4992616;28;20431;-90
2022/12/04 05:22:49;;;;;;;0.00;0.00;;;;;;;;;;4992832;28;20070;-89
2022/12/04 05:25:15;;;;;;;0.43;0.43;;;;;;;;;;4992651;28;20035;-88
2022/12/04 05:27:41;;;;;;;0.00;0.00;;;;;;;;;;4992568;28;20403;-89
2022/12/04 05:30:07;;;;;;;0.00;0.00;;;;;;;;;;4992341;28;20050;-89
2022/12/04 05:32:33;;;;;;;0.13;0.13;;;;;;;;;;4992271;28;20049;-89
2022/12/04 05:34:59;;;;;;;0.00;0.00;;;;;;;;;;4992424;28;20038;-88
2022/12/04 05:37:25;;;;;;;0.10;0.10;;;;;;;;;;4992345;28;20046;-87
2022/12/04 05:39:51;;;;;;;0.90;0.30;;;;;;;;;;4992061;28;20147;-90
2022/12/04 05:42:17;;;;;;;0.00;0.00;;;;;;;;;;4992186;28;20156;-88
2022/12/04 05:44:43;;;;;;;0.00;0.00;;;;;;;;;;4992194;28;20039;-89
2022/12/04 05:47:09;;;;;;;0.00;0.00;;;;;;;;;;4992450;28;20057;-88
2022/12/04 05:49:36;;;;;;;0.00;0.00;;;;;;;;;;4992267;28;20052;-88
2022/12/04 05:52:02;;;;;;;0.73;0.10;;;;;;;;;;4992092;28;20045;-89
2022/12/04 05:54:28;;;;;;;0.10;0.03;;;;;;;;;;4991976;28;20043;-90
2022/12/04 05:56:54;;;;;;;0.00;0.00;;;;;;;;;;4992387;28;20073;-89
2022/12/04 05:59:20;;;;;;;0.00;0.00;;;;;;;;;;4992092;28;20137;-88
2022/12/04 06:01:46;;;;;;;0.00;0.00;;;;;;;;;;4992120;28;20038;-89
2022/12/04 06:04:12;;;;;;;0.32;0.30;;;;;;;;;;4993633;28;20038;-88
2022/12/04 06:06:38;;;;;;;0.00;0.00;;;;;;;;;;4995531;28;20061;-89
2022/12/04 06:09:05;;;;;;;0.00;0.00;;;;;;;;;;4995972;28;20046;-91
2022/12/04 06:11:33;;;;;;;0.00;0.00;;;;;;;;;;4995786;28;20381;-89
2022/12/04 06:14:00;;;;;;;0.00;0.00;;;;;;;;;;4995737;28;20046;-87
2022/12/04 06:16:28;;;;;;;0.00;0.00;;;;;;;;;;4995887;28;20529;-90
2022/12/04 06:18:55;;;;;;;0.30;0.10;;;;;;;;;;4995601;28;20054;-89
2022/12/04 06:21:22;;;;;;;0.00;0.00;;;;;;;;;;4995409;28;20042;-89
2022/12/04 06:23:48;;;;;;;0.70;0.38;;;;;;;;;;4995655;28;20048;-88
2022/12/04 06:26:15;;;;;;;0.00;0.00;;;;;;;;;;4995525;28;20097;-89
2022/12/04 06:28:40;;;;;;;1.35;0.17;;;;;;;;;;4995685;28;20042;-91
2022/12/04 06:31:08;;;;;;;0.20;0.20;;;;;;;;;;4995496;28;20096;-89
2022/12/04 06:33:34;;;;;;;0.00;0.00;;;;;;;;;;4995834;28;20550;-89
2022/12/04 06:36:01;;;;;;;0.00;0.00;;;;;;;;;;4994906;28;20126;-89
2022/12/04 06:38:28;;;;;;;0.25;0.25;;;;;;;;;;4995199;28;20121;-89
2022/12/04 06:40:54;;;;;;;0.00;0.00;;;;;;;;;;4995229;28;20507;-88
2022/12/04 06:43:20;;;;;;;0.00;0.00;;;;;;;;;;4995238;28;20065;-89
2022/12/04 06:45:46;;;;;;;0.00;0.00;;;;;;;;;;4995451;28;20133;-89
2022/12/04 06:48:12;;;;;;;0.25;0.20;;;;;;;;;;4995421;28;20042;-89
2022/12/04 06:50:38;;;;;;;0.00;0.00;;;;;;;;;;4995641;28;20077;-92
2022/12/04 06:53:04;;;;;;;0.00;0.00;;;;;;;;;;4995492;28;20650;-89
2022/12/04 06:55:30;;;;;;;0.00;0.00;;;;;;;;;;4994993;28;20038;-89
2022/12/04 06:57:56;;;;;;;0.20;0.10;;;;;;;;;;4994751;28;20043;-88
2022/12/04 07:00:22;;;;;;;0.45;0.30;;;;;;;;;;4994995;28;20082;-90
2022/12/04 07:02:48;;;;;;;4.10;0.30;;;;;;;;;;4995188;28;20034;-90
2022/12/04 07:05:14;;;;;;;1.17;0.47;;;;;;;;;;4994881;28;20057;-87
2022/12/04 07:07:40;;;;;;;0.00;0.00;;;;;;;;;;4994902;28;20122;-87
2022/12/04 07:10:06;;;;;;;0.00;0.00;;;;;;;;;;4994467;28;20061;-87
2022/12/04 07:12:32;;;;;;;0.10;0.10;;;;;;;;;;4994518;28;20046;-89
2022/12/04 07:14:58;;;;;;;0.03;0.03;;;;;;;;;;4994237;28;20092;-86
2022/12/04 07:17:24;;;;;;;0.00;0.00;;;;;;;;;;4994158;28;20407;-87
2022/12/04 07:19:50;;;;;;;0.00;0.00;;;;;;;;;;4994066;28;20046;-87
2022/12/04 07:22:16;;;;;;;0.22;0.00;;;;;;;;;;4994122;28;20138;-86
2022/12/04 07:24:42;;;;;;;0.00;0.00;;;;;;;;;;4994469;28;20404;-87
2022/12/04 07:27:08;;;;;;;0.20;0.10;;;;;;;;;;4967337;28;20053;-86
2022/12/04 07:29:34;;;;;;;0.00;0.00;;;;;;;;;;4974573;28;20065;-88
2022/12/04 07:32:00;;;;;;;0.00;0.00;;;;;;;;;;4957908;28;20197;-87
2022/12/04 07:34:26;;;;;;;0.38;0.38;;;;;;;;;;4974019;28;20051;-87
2022/12/04 07:36:52;;;;;;;1.08;1.00;;;;;;;;;;4973993;28;20049;-88
2022/12/04 07:39:18;;;;;;;0.10;0.10;;;;;;;;;;4957996;28;20508;-87
2022/12/04 07:41:44;;;;;;;0.00;0.00;;;;;;;;;;4973912;28;20041;-87
2022/12/04 07:44:10;;;;;;;0.00;0.00;;;;;;;;;;4974120;28;20065;-86
2022/12/04 07:46:36;;;;;;;0.00;0.00;;;;;;;;;;4973655;28;20039;-86
2022/12/04 07:49:02;;;;;;;0.00;0.00;;;;;;;;;;4973504;28;20042;-87
2022/12/04 07:51:28;;;;;;;0.00;0.00;;;;;;;;;;4973697;28;20097;-88
2022/12/04 07:53:57;;;;;;;0.00;0.00;;;;;;;;;;4957605;28;20047;-87
2022/12/04 07:56:23;;;;;;;0.00;0.00;;;;;;;;;;4957595;28;20047;-86
2022/12/04 07:58:49;;;;;;;0.00;0.00;;;;;;;;;;4973203;28;20062;-88
2022/12/04 08:01:16;;;;;;;0.00;0.00;;;;;;;;;;4973622;28;20077;-87
2022/12/04 08:03:43;;;;;;;0.00;0.00;;;;;;;;;;4974072;28;20042;-87
2022/12/04 08:06:10;;;;;;;5.38;0.30;;;;;;;;;;4957297;28;20049;-87
2022/12/04 08:08:37;;;;;;;0.00;0.00;;;;;;;;;;4957193;28;20050;-85
2022/12/04 08:11:10;;;;;;;0.00;0.00;;;;;;;;;;4957191;28;20381;-86
2022/12/04 08:13:36;;;;;;;0.00;0.00;;;;;;;;;;4957123;28;20043;-87
2022/12/04 08:16:06;;;;;;;0.00;0.00;;;;;;;;;;4957480;28;20403;-87
2022/12/04 08:18:33;;;;;;;1.98;0.70;;;;;;;;;;4973747;28;20154;-86
2022/12/04 08:21:09;;;;;;;0.00;0.00;;;;;;;;;;4957175;28;20086;-86
2022/12/04 08:23:36;;;;;;;0.00;0.00;;;;;;;;;;4958049;28;20047;-87
2022/12/04 08:26:02;;;;;;;0.00;0.00;;;;;;;;;;4973674;28;20069;-87
2022/12/04 08:28:29;;;;;;;0.00;0.00;;;;;;;;;;4973332;28;20046;-86
2022/12/04 08:30:55;;;;;;;1.00;0.80;;;;;;;;;;4973531;28;20100;-85
2022/12/04 08:33:21;;;;;;;0.00;0.00;;;;;;;;;;4973349;28;20074;-85
2022/12/04 08:35:47;;;;;;;1.75;0.15;;;;;;;;;;4973366;28;20051;-86
2022/12/04 08:38:13;;;;;;;0.00;0.00;;;;;;;;;;4973279;28;20081;-87
2022/12/04 08:40:39;;;;;;;0.00;0.00;;;;;;;;;;4973445;28;20042;-92
2022/12/04 08:43:05;;;;;;;0.00;0.00;;;;;;;;;;4973293;28;20062;-86
2022/12/04 08:45:31;;;;;;;0.00;0.00;;;;;;;;;;4973369;28;20182;-86
2022/12/04 08:47:57;;;;;;;0.00;0.00;;;;;;;;;;4973515;28;20042;-86
2022/12/04 08:50:23;;;;;;;0.00;0.00;;;;;;;;;;4974321;28;20404;-85
2022/12/04 08:52:49;;;;;;;0.00;0.00;;;;;;;;;;4973055;28;20038;-85
2022/12/04 08:55:14;;;;;;;0.40;0.25;;;;;;;;;;4973225;28;20054;-85
2022/12/04 08:57:40;;;;;;;1.75;0.73;;;;;;;;;;4973136;28;20118;-85
2022/12/04 09:00:07;;;;;;;0.00;0.00;;;;;;;;;;4972774;28;20046;-86
2022/12/04 09:02:33;;;;;;;3.10;1.17;;;;;;;;;;4972784;28;20060;-86
2022/12/04 09:04:59;;;;;;;0.00;0.00;;;;;;;;;;4973044;28;20077;-86
2022/12/04 09:07:25;;;;;;;0.90;0.32;;;;;;;;;;4973657;28;20074;-88
2022/12/04 09:09:51;;;;;;;0.00;0.00;;;;;;;;;;4973418;28;20082;-87
2022/12/04 09:12:17;;;;;;;0.00;0.00;;;;;;;;;;4972757;28;20042;-87
2022/12/04 09:14:43;;;;;;;0.00;0.00;;;;;;;;;;4973081;28;20046;-88
2022/12/04 09:17:09;;;;;;;0.00;0.00;;;;;;;;;;4972772;28;20043;-88
2022/12/04 09:19:36;;;;;;;0.00;0.00;;;;;;;;;;4972931;28;20047;-88
2022/12/04 09:22:02;;;;;;;0.00;0.00;;;;;;;;;;4972876;28;20107;-87
2022/12/04 09:24:29;;;;;;;0.00;0.00;;;;;;;;;;4972958;28;20039;-88
2022/12/04 09:26:55;;;;;;;0.00;0.00;;;;;;;;;;4972784;28;20046;-88
2022/12/04 09:29:21;;;;;;;0.32;0.32;;;;;;;;;;4973007;28;20043;-89
2022/12/04 09:31:47;;;;;;;2.55;0.38;;;;;;;;;;4972613;28;20046;-88
2022/12/04 09:34:13;;;;;;;0.00;0.00;;;;;;;;;;4972709;28;20440;-87
2022/12/04 09:36:39;;;;;;;0.00;0.00;;;;;;;;;;4972769;28;20039;-86
2022/12/04 09:39:05;;;;;;;0.00;0.00;;;;;;;;;;4975691;28;20055;-86
2022/12/04 09:41:49;;;;;;;0.80;0.43;;;;;;;;;;4976873;28;20400;-87
2022/12/04 09:44:35;;;;;;;0.20;0.15;;;;;;;;;;4976632;28;20046;-87
2022/12/04 09:47:04;;;;;;;0.00;0.00;;;;;;;;;;4976725;28;20102;-87
2022/12/04 09:49:39;;;;;;;0.00;0.00;;;;;;;;;;4976548;28;20058;-87
2022/12/04 09:52:13;;;;;;;0.00;0.00;;;;;;;;;;4976648;28;20046;-86
2022/12/04 09:54:42;;;;;;;0.00;0.00;;;;;;;;;;4976476;28;20400;-88
2022/12/04 09:57:46;;;;;;;0.00;0.00;;;;;;;;;;4976255;28;20082;-88
2022/12/04 10:00:14;;;;;;;1.23;0.38;;;;;;;;;;4905279;29;20524;-89
2022/12/04 10:02:41;;;;;;;0.00;0.00;;;;;;;;;;4921255;29;20063;-89
2022/12/04 10:05:15;;;;;;;0.00;0.00;;;;;;;;;;4946751;28;20136;-89
2022/12/04 10:07:48;;;;;;;0.00;0.00;;;;;;;;;;4976357;28;20050;-87
2022/12/04 10:10:17;;;;;;;0.00;0.00;;;;;;;;;;4976616;28;20053;-88
2022/12/04 10:12:43;;;;;;;0.00;0.00;;;;;;;;;;4976303;28;20045;-88
2022/12/04 10:15:18;;;;;;;0.15;0.15;;;;;;;;;;4976140;28;20042;-88
2022/12/04 10:17:44;;;;;;;0.55;0.35;;;;;;;;;;4975791;28;20039;-87
2022/12/04 10:20:10;;;;;;;0.47;0.35;;;;;;;;;;4976120;28;20043;-89
2022/12/04 10:22:46;;;;;;;0.35;0.35;;;;;;;;;;4975753;28;20145;-88
2022/12/04 10:25:16;;;;;;;0.00;0.00;;;;;;;;;;4976444;28;20125;-87
2022/12/04 10:27:46;;;;;;;0.35;0.15;;;;;;;;;;4978485;28;20055;-88
2022/12/04 10:30:23;;;;;;;0.10;0.10;;;;;;;;;;4961006;28;20051;-87
2022/12/04 10:32:52;;;;;;;0.32;0.32;;;;;;;;;;4959928;28;20035;-88
2022/12/04 10:35:22;;;;;;;0.00;0.00;;;;;;;;;;4976274;28;20053;-89
2022/12/04 10:38:15;;;;;;;0.00;0.00;;;;;;;;;;4975753;28;20408;-91
2022/12/04 10:40:46;;;;;;;0.00;0.00;;;;;;;;;;4972310;28;20051;-87
2022/12/04 10:43:15;;;;;;;1.13;0.50;;;;;;;;;;4959786;28;20039;-88
2022/12/04 10:45:41;;;;;;;0.00;0.00;;;;;;;;;;4976456;28;20043;-87
2022/12/04 10:48:08;;;;;;;0.00;0.00;;;;;;;;;;4959394;28;20558;-88
2022/12/04 10:50:34;;;;;;;0.00;0.00;;;;;;;;;;4975028;28;20089;-88
2022/12/04 10:53:00;;;;;;;0.20;0.20;;;;;;;;;;4959432;28;20456;-90
2022/12/04 10:55:31;;;;;;;0.00;0.00;;;;;;;;;;4969595;28;20038;-91
2022/12/04 10:57:57;;;;;;;0.80;0.45;;;;;;;;;;4956781;29;20046;-89
2022/12/04 11:00:23;;;;;;;0.00;0.00;;;;;;;;;;4956739;29;20059;-91
2022/12/04 11:02:50;;;;;;;0.00;0.00;;;;;;;;;;4958310;28;20039;-91
2022/12/04 11:05:27;;;;;;;0.30;0.22;;;;;;;;;;4976049;28;20090;-91
2022/12/04 11:07:53;;;;;;;0.00;0.00;;;;;;;;;;4959886;28;20042;-90
2022/12/04 11:10:40;;;;;;;0.10;0.00;;;;;;;;;;4975919;28;20097;-91
2022/12/04 11:13:14;;;;;;;0.00;0.00;;;;;;;;;;4975938;28;20399;-89
2022/12/04 11:15:47;;;;;;;0.00;0.00;;;;;;;;;;4976091;28;20416;-90
2022/12/04 11:18:16;;;;;;;0.55;0.08;;;;;;;;;;4976407;28;20039;-91
2022/12/04 11:20:48;;;;;;;0.10;0.10;;;;;;;;;;4975959;28;20042;-91
2022/12/04 11:23:16;;;;;;;0.35;0.20;;;;;;;;;;4975760;28;20045;-91
2022/12/04 11:25:47;;;;;;;0.17;0.17;;;;;;;;;;4975934;28;20046;-90
2022/12/04 11:28:17;;;;;;;0.00;0.00;;;;;;;;;;4975397;28;20042;-91
2022/12/04 11:30:47;;;;;;;0.20;0.20;;;;;;;;;;4975659;28;20039;-91
2022/12/04 11:33:39;;;;;;;0.00;0.00;;;;;;;;;;4975647;28;20039;-92
2022/12/04 11:36:13;;;;;;;0.00;0.00;;;;;;;;;;4973151;28;20082;-91
2022/12/04 11:38:39;;;;;;;0.00;0.00;;;;;;;;;;4975889;28;20050;-90
2022/12/04 11:41:05;;;;;;;0.00;0.00;;;;;;;;;;4975767;28;20038;-90
2022/12/04 11:43:36;;;;;;;0.22;0.22;;;;;;;;;;4975941;28;20076;-90
2022/12/04 11:46:05;;;;;;;0.00;0.00;;;;;;;;;;4975856;28;20054;-92
2022/12/04 11:48:40;;;;;;;0.35;0.35;;;;;;;;;;4975290;28;20039;-91
2022/12/04 11:51:29;;;;;;;0.00;0.00;;;;;;;;;;4975160;28;20043;-90
2022/12/04 11:54:14;;;;;;;0.00;0.00;;;;;;;;;;4967846;28;20084;-90
2022/12/04 11:56:46;;;;;;;0.00;0.00;;;;;;;;;;4975308;28;20397;-91
2022/12/04 11:59:15;;;;;;;0.25;0.20;;;;;;;;;;4972042;28;20055;-91
2022/12/04 12:01:47;;;;;;;0.00;0.00;;;;;;;;;;4974086;28;20098;-90
2022/12/04 12:04:32;;;;;;;0.00;0.00;;;;;;;;;;4958533;28;20038;-89
2022/12/04 12:06:58;;;;;;;0.10;0.10;;;;;;;;;;4974762;28;20070;-90
2022/12/04 12:09:31;;;;;;;0.25;0.17;;;;;;;;;;4974477;28;20428;-91
2022/12/04 12:12:12;;;;;;;0.20;0.05;;;;;;;;;;4975150;28;20074;-90
2022/12/04 12:14:55;;;;;;;0.00;0.00;;;;;;;;;;4974471;28;20134;-91
2022/12/04 12:17:45;;;;;;;0.00;0.00;;;;;;;;;;4975177;28;20492;-91
2022/12/04 12:20:22;;;;;;;0.00;0.00;;;;;;;;;;4974627;28;20051;-90
2022/12/04 12:22:51;;;;;;;0.00;0.00;;;;;;;;;;4954656;28;20039;-90
2022/12/04 12:25:38;;;;;;;0.00;0.00;;;;;;;;;;4964701;28;20117;-90
2022/12/04 12:28:10;;;;;;;0.15;0.13;;;;;;;;;;4962955;28;20043;-89
2022/12/04 12:30:42;;;;;;;0.32;0.32;;;;;;;;;;4954529;28;20035;-89
2022/12/04 12:33:08;;;;;;;0.00;0.00;;;;;;;;;;4954687;28;20436;-88
2022/12/04 12:35:37;;;;;;;0.00;0.00;;;;;;;;;;4964197;28;20041;-89
2022/12/04 12:38:11;;;;;;;0.00;0.00;;;;;;;;;;4972994;28;20148;-88
2022/12/04 12:40:44;;;;;;;0.00;0.00;;;;;;;;;;4955187;28;20043;-88
2022/12/04 12:43:20;;;;;;;0.00;0.00;;;;;;;;;;4954467;28;20043;-89
2022/12/04 12:45:54;;;;;;;0.00;0.00;;;;;;;;;;4954013;29;20118;-88
2022/12/04 12:48:21;;;;;;;0.00;0.00;;;;;;;;;;4938330;29;20035;-89
2022/12/04 12:50:53;;;;;;;0.00;0.00;;;;;;;;;;4953996;28;20043;-88
2022/12/04 12:53:22;;;;;;;0.00;0.00;;;;;;;;;;4955581;28;20096;-89
2022/12/04 12:55:51;;;;;;;0.00;0.00;;;;;;;;;;4972872;28;20125;-89
2022/12/04 12:58:37;;;;;;;0.77;0.20;;;;;;;;;;4972857;28;20563;-89
2022/12/04 13:01:22;;;;;;;0.93;0.28;;;;;;;;;;4957608;28;20114;-90
2022/12/04 13:03:58;;;;;;;0.00;0.00;;;;;;;;;;4973389;28;20046;-88
2022/12/04 13:06:23;;;;;;;;;;;;;;;;;;4973795;28;20122;-89
2022/12/04 13:09:05;;;;;;;0.00;0.00;;;;;;;;;;4972921;28;19957;-89
2022/12/04 13:11:31;;;;;;;0.00;0.00;;;;;;;;;;4973129;28;20047;-88
2022/12/04 13:13:58;;;;;;;0.00;0.00;;;;;;;;;;4974532;28;20069;-88
2022/12/04 13:16:32;;;;;;;0.00;0.00;;;;;;;;;;4989314;28;20058;-89
2022/12/04 13:19:10;;;;;;;0.00;0.00;;;;;;;;;;4973069;28;20051;-89
2022/12/04 13:21:57;;;;;;;0.00;0.00;;;;;;;;;;4973380;28;20479;-89
2022/12/04 13:24:37;;;;;;;0.00;0.00;;;;;;;;;;4972878;28;20555;-88
2022/12/04 13:27:03;;;;;;;0.00;0.00;;;;;;;;;;4973557;28;20038;-90
2022/12/04 13:29:51;;;;;;;0.00;0.00;;;;;;;;;;4972969;28;20049;-91
2022/12/04 13:32:36;;;;;;;0.00;0.00;;;;;;;;;;4985911;28;20043;-90
2022/12/04 13:35:05;;;;;;;0.20;0.15;;;;;;;;;;4973221;28;20043;-89
2022/12/04 13:37:31;;;;;;;0.00;0.00;;;;;;;;;;4957237;28;20046;-89
2022/12/04 13:40:16;;;;;;;0.13;0.13;;;;;;;;;;4962141;28;20046;-89
2022/12/04 13:42:42;;;;;;;0.00;0.00;;;;;;;;;;4954027;29;20160;-90
2022/12/04 13:45:25;;;;;;;0.22;0.22;;;;;;;;;;4953836;29;20043;-89
2022/12/04 13:48:02;;;;;;;0.90;0.43;;;;;;;;;;4953902;28;20031;-90
2022/12/04 13:50:33;;;;;;;0.10;0.00;;;;;;;;;;4938943;28;20130;-89
2022/12/04 13:52:59;;;;;;;0.00;0.00;;;;;;;;;;4972765;28;20495;-90
2022/12/04 13:55:34;;;;;;;0.00;0.00;;;;;;;;;;4957352;28;20050;-90
2022/12/04 13:58:03;;;;;;;0.00;0.00;;;;;;;;;;4973297;28;20099;-91
2022/12/04 14:00:31;;;;;;;1.00;0.95;;;;;;;;;;4972983;28;20055;-93
2022/12/04 14:02:59;;;;;;;0.55;0.40;;;;;;;;;;4973341;28;20066;-90
2022/12/04 14:05:30;;;;;;;0.17;0.17;;;;;;;;;;4957343;28;20049;-92
2022/12/04 14:08:05;;;;;;;0.45;0.10;;;;;;;;;;4972248;28;20373;-89
2022/12/04 14:10:33;;;;;;;0.00;0.00;;;;;;;;;;4972765;28;20054;-90
2022/12/04 14:13:05;;;;;;;0.00;0.00;;;;;;;;;;4973124;28;20066;-92
2022/12/04 14:15:36;;;;;;;0.38;0.10;;;;;;;;;;4975630;28;20043;-92
2022/12/04 14:18:09;;;;;;;1.55;0.38;;;;;;;;;;4974415;28;20122;-88
2022/12/04 14:20:35;;;;;;;0.08;0.00;;;;;;;;;;4973261;28;20050;-89
2022/12/04 14:23:25;;;;;;;0.20;0.20;;;;;;;;;;4973297;28;20043;-93
2022/12/04 14:25:55;;;;;;;1.40;0.43;;;;;;;;;;4975672;28;20038;-90
2022/12/04 14:28:30;;;;;;;0.05;0.05;;;;;;;;;;4976896;28;20106;-92
2022/12/04 14:31:08;;;;;;;0.00;0.00;;;;;;;;;;4976655;28;20077;-91
2022/12/04 14:33:38;;;;;;;4.68;3.10;;;;;;;;;;4976451;28;20043;-90
2022/12/04 14:36:06;;;;;;;0.38;0.13;;;;;;;;;;4975676;28;20057;-88
2022/12/04 14:38:33;;;;;;;0.00;0.00;;;;;;;;;;4975871;28;20046;-88
2022/12/04 14:41:00;;;;;;;0.35;0.32;;;;;;;;;;4975979;28;20039;-89
2022/12/04 14:43:39;;;;;;;0.80;0.70;;;;;;;;;;4976008;28;20039;-89
2022/12/04 14:46:13;;;;;;;1.75;0.70;;;;;;;;;;4975888;28;20049;-89
2022/12/04 14:48:42;;;;;;;0.00;0.00;;;;;;;;;;4976299;28;20042;-88
2022/12/04 14:51:18;;;;;;;0.00;0.00;;;;;;;;;;4976045;28;20046;-89
2022/12/04 14:53:44;;;;;;;0.20;0.13;;;;;;;;;;4976285;28;20043;-89
2022/12/04 14:56:29;;;;;;;0.20;0.20;;;;;;;;;;4975774;28;20053;-90
2022/12/04 14:58:55;;;;;;;0.00;0.00;;;;;;;;;;4975855;28;20133;-89
2022/12/04 15:01:26;;;;;;;0.65;0.52;;;;;;;;;;4975931;28;20043;-91
2022/12/04 15:03:57;;;;;;;0.00;0.00;;;;;;;;;;4976838;28;20038;-91
2022/12/04 15:06:28;;;;;;;0.30;0.30;;;;;;;;;;4976543;28;20050;-92
2022/12/04 15:12:32;;;;;;;0.00;0.00;;;;;;;;;;4963024;28;20062;-92
2022/12/04 15:14:38;;;;;;;0.00;0.00;;;;;;;;;;4975895;28;20047;-90